Airfield :
LOGIN :

Register | Disclaimer

   EN    FR    IT 

 










Legend :    VFR   Marginal VFR   IFR   Intensive IFR   Very Intensive IFR
Visi :
Ceiling :
>= 8 km
>= 3000ft
5 to 8 km
1000 to 3000 ft
1500m to 5 km
500 to 1000 ft
800 to 1500m
200 to 500 ft
< 800m
< 200 ft
Symbols :   Thunderstorms  Fog  Heavy snow  Heavy precipitations  Wind > 20 kt
SIGMETs :     Misc.  Thunderstorms  Icing  Turbulence  Mountain Waves  Volcanic Ashes







- Airport Elevation : 778 ft
- IATA code : BRQ


LKTB - Brno-Turany

CURRENT METAR :
  • 251930Z 10005KT CAVOK 25/20 Q1024 NOSIG

EXPIRED METARs :
  • 251900Z 10005KT CAVOK 26/20 Q1023 NOSIG
  • 251830Z 13003KT CAVOK 27/20 Q1023 NOSIG
  • 251800Z 17003KT CAVOK 28/20 Q1023 NOSIG
  • 251730Z 16005KT CAVOK 29/19 Q1023 NOSIG
  • 251700Z 16007KT CAVOK 30/19 Q1023 NOSIG

TAF TAF LKTB
Valid from the 25 at 18:00 until the 27 at 00:00 UTC


251700Z 2518/2700 15006KT CAVOK
BECMG 2523/2601 VRB02KT
BECMG 2612/2614 22004KT
No reported NOTAMs for that airfield.



MET'MAP, your aeronautical weather chart ! - Copyright ORBIFLY December 2007 - Disclaimer

ORBIFLY MET'MAP TEAM :

Programming & Development : Alexandra Zaïnal
Concept & Development : Baudouin d'Aumeries
Co-Development & Prog : Marc-Olivier Méhu
Technical & hardware support : Manuel Goepfert

Contact : metmap@orbifly.com




SOURCES & CREDITS :

   NOAA